createdAt,value
2022-12-31T04:10:33.591Z,54.69
2022-12-31T04:11:33.568Z,54.61
2022-12-31T04:12:33.543Z,51.89
2022-12-31T04:13:33.520Z,57.56
2022-12-31T04:14:33.502Z,41.62
2022-12-31T04:15:33.510Z,44.86
2022-12-31T06:12:30.575Z,52.70
2022-12-31T06:13:30.534Z,48.54
2022-12-31T06:14:30.501Z,52.12
2022-12-31T06:15:30.643Z,58.26
2022-12-31T06:16:30.437Z,54.83
2022-12-31T06:17:30.417Z,50.06
2022-12-31T06:18:30.384Z,49.58
2022-12-31T06:19:30.371Z,56.78
2022-12-31T06:20:30.326Z,56.24
2022-12-31T06:21:30.297Z,51.21
2022-12-31T06:22:30.263Z,50.28
2022-12-31T06:23:30.237Z,58.68
2022-12-31T06:24:30.262Z,53.34
2022-12-31T06:25:30.184Z,52.18
2022-12-31T06:26:30.159Z,57.00
2022-12-31T06:27:30.121Z,53.83
2022-12-31T06:28:30.089Z,48.87
2022-12-31T06:29:30.062Z,60.55
2022-12-31T06:30:30.045Z,59.34
2022-12-31T06:31:30.110Z,54.20
2022-12-31T06:32:29.963Z,54.94
2022-12-31T06:33:29.930Z,45.88
2022-12-31T06:34:29.895Z,53.36
2022-12-31T06:35:29.859Z,50.48
2022-12-31T06:36:29.829Z,55.09
2022-12-31T06:37:29.805Z,47.45
2022-12-31T06:38:29.772Z,55.04
2022-12-31T06:39:29.739Z,48.31
2022-12-31T06:40:29.707Z,50.38
2022-12-31T06:41:29.679Z,53.69
2022-12-31T06:42:29.642Z,52.13
2022-12-31T06:43:29.646Z,59.78
2022-12-31T06:44:29.586Z,48.64
2022-12-31T06:45:29.557Z,43.46
2022-12-31T06:46:29.572Z,50.32
2022-12-31T06:47:29.523Z,46.52
2022-12-31T06:48:29.475Z,53.87
2022-12-31T06:49:29.436Z,50.25
2022-12-31T06:50:29.409Z,49.48
2022-12-31T06:51:29.376Z,55.32
2022-12-31T06:52:29.364Z,62.01
2022-12-31T06:53:29.319Z,48.40
2022-12-31T06:54:29.317Z,51.56
2022-12-31T06:55:29.257Z,49.03
2022-12-31T06:56:33.419Z,55.21
2022-12-31T06:57:29.201Z,55.67
2022-12-31T06:58:29.175Z,56.00
2022-12-31T06:59:29.172Z,54.71
2022-12-31T07:00:29.120Z,54.91
2022-12-31T07:01:29.225Z,56.00
2022-12-31T07:02:29.190Z,50.69
2022-12-31T07:03:29.093Z,53.45
2022-12-31T07:04:29.028Z,53.26
2022-12-31T07:05:28.997Z,55.60
2022-12-31T07:06:28.963Z,63.62
2022-12-31T07:07:28.927Z,53.69
2022-12-31T07:08:28.902Z,51.65
2022-12-31T07:09:28.881Z,53.85
2022-12-31T07:10:30.026Z,43.85
2022-12-31T07:11:28.836Z,47.25
2022-12-31T07:12:28.796Z,62.19
2022-12-31T07:13:28.768Z,52.21
2022-12-31T07:14:28.746Z,55.60
2022-12-31T07:15:28.706Z,56.33
2022-12-31T07:16:28.797Z,48.44
2022-12-31T07:17:28.650Z,60.39
2022-12-31T07:18:28.621Z,59.96
2022-12-31T07:19:28.629Z,52.20
2022-12-31T07:20:28.635Z,51.13
2022-12-31T07:21:28.544Z,51.19
2022-12-31T07:22:28.518Z,51.86
2022-12-31T08:50:25.278Z,54.43
2022-12-31T09:31:25.257Z,47.24
2022-12-31T09:34:25.163Z,51.69
2022-12-31T09:35:25.143Z,49.51
2022-12-31T09:36:25.127Z,55.75
2022-12-31T09:37:25.096Z,50.31
2022-12-31T09:38:25.076Z,52.93
2022-12-31T09:40:25.029Z,48.84
2022-12-31T09:41:25.002Z,58.39
2022-12-31T09:42:24.971Z,53.06
2022-12-31T09:44:24.943Z,58.78
2022-12-31T09:45:24.913Z,52.97
2022-12-31T09:46:24.877Z,53.71
2022-12-31T09:47:24.865Z,44.47
2022-12-31T09:48:24.828Z,52.08
2022-12-31T09:49:24.808Z,51.02
2022-12-31T09:50:24.795Z,44.52
2022-12-31T09:51:25.652Z,49.62
2022-12-31T09:52:24.744Z,53.71
2022-12-31T09:53:24.738Z,53.94
2022-12-31T09:54:24.708Z,46.70
2022-12-31T09:55:24.681Z,47.02
2022-12-31T09:56:24.658Z,52.85
2022-12-31T09:57:24.620Z,57.75
2022-12-31T09:58:24.597Z,50.12
2022-12-31T09:59:24.604Z,62.76
2022-12-31T10:00:24.557Z,57.77
2022-12-31T10:01:24.732Z,54.60
2022-12-31T10:02:24.664Z,54.62
2022-12-31T10:03:24.552Z,60.85
2022-12-31T10:04:24.475Z,52.93
2022-12-31T10:05:24.450Z,55.72
2022-12-31T10:06:24.427Z,55.83
2022-12-31T10:07:24.396Z,49.41
2022-12-31T10:08:24.369Z,49.57
2022-12-31T10:09:24.351Z,40.54
2022-12-31T10:10:24.334Z,49.82
2022-12-31T10:11:24.303Z,46.76
2022-12-31T10:12:24.285Z,46.32
2022-12-31T10:13:24.263Z,39.30
2022-12-31T10:14:24.238Z,40.54
2022-12-31T10:15:24.261Z,51.49
2022-12-31T10:16:24.244Z,48.43
2022-12-31T10:17:24.164Z,58.26
2022-12-31T10:18:24.134Z,49.87
2022-12-31T10:19:24.117Z,38.24
2022-12-31T10:20:24.081Z,44.51
2022-12-31T10:21:24.058Z,42.21
2022-12-31T10:22:24.038Z,41.39
2022-12-31T10:23:24.006Z,43.57
2022-12-31T10:24:23.982Z,39.79
2022-12-31T10:25:39.228Z,44.16
2022-12-31T10:26:23.937Z,44.59
2022-12-31T10:27:23.905Z,45.80
2022-12-31T10:28:23.893Z,47.26
2022-12-31T10:29:23.857Z,49.10
2022-12-31T10:30:23.833Z,49.53
2022-12-31T10:31:23.901Z,46.51
2022-12-31T10:32:29.393Z,38.35
2022-12-31T10:33:23.751Z,38.96
2022-12-31T10:34:23.727Z,41.29
2022-12-31T10:35:23.714Z,44.31
2022-12-31T10:36:23.671Z,42.41
2022-12-31T10:37:23.660Z,43.75
2022-12-31T10:38:23.627Z,41.33
2022-12-31T10:39:24.575Z,44.70
2022-12-31T10:40:23.572Z,58.35
2022-12-31T10:41:23.566Z,49.44
2022-12-31T10:42:23.519Z,44.30
2022-12-31T10:43:23.505Z,47.62
2022-12-31T12:01:21.415Z,55.89
2022-12-31T12:02:21.305Z,38.78
2022-12-31T12:03:21.210Z,39.12
2022-12-31T12:04:21.179Z,44.83
2022-12-31T12:05:21.183Z,41.03
2022-12-31T12:06:21.130Z,43.78
2022-12-31T12:07:21.140Z,39.84
2022-12-31T12:08:21.072Z,45.97
2022-12-31T12:09:21.053Z,53.57
2022-12-31T12:10:21.017Z,40.14
2022-12-31T12:11:21.051Z,45.33
2022-12-31T12:12:20.973Z,43.88
2022-12-31T12:13:20.943Z,43.39
2022-12-31T12:14:20.911Z,37.19
2022-12-31T12:15:20.891Z,47.22
2022-12-31T12:16:20.899Z,45.85
2022-12-31T12:17:20.835Z,42.02
2022-12-31T12:18:20.808Z,30.69
2022-12-31T12:19:20.788Z,36.08
2022-12-31T12:20:20.757Z,40.75
2022-12-31T12:21:20.758Z,42.71
2022-12-31T12:22:20.729Z,41.12
2022-12-31T12:23:20.716Z,40.62
2022-12-31T12:24:20.682Z,43.01
2022-12-31T12:25:20.667Z,44.21
2022-12-31T12:26:20.633Z,47.94
2022-12-31T12:27:20.612Z,42.40
2022-12-31T12:28:20.596Z,42.38
2022-12-31T12:29:20.614Z,45.24
2022-12-31T12:30:20.568Z,43.66
2022-12-31T12:31:20.595Z,43.12
2022-12-31T12:32:20.541Z,43.92
2022-12-31T12:33:20.480Z,49.87
2022-12-31T12:34:20.460Z,39.71
2022-12-31T12:35:20.440Z,34.72
2022-12-31T12:36:20.414Z,43.99
2022-12-31T12:37:20.387Z,40.42
2022-12-31T12:38:20.359Z,35.82
2022-12-31T12:39:20.359Z,41.96
2022-12-31T12:40:20.309Z,50.59
2022-12-31T12:41:20.281Z,43.75
2022-12-31T12:42:20.252Z,51.11
2022-12-31T12:43:20.229Z,47.59
2022-12-31T12:44:20.197Z,36.01
2022-12-31T12:45:20.215Z,33.37
2022-12-31T12:46:20.198Z,32.90
2022-12-31T12:47:20.119Z,37.35
2022-12-31T12:48:20.100Z,35.59
2022-12-31T12:49:20.065Z,36.29
2022-12-31T12:50:20.039Z,27.84
2022-12-31T12:51:20.029Z,29.39
2022-12-31T12:52:19.985Z,33.49
2022-12-31T12:53:19.974Z,37.85
2022-12-31T12:54:19.947Z,45.71
2022-12-31T12:55:19.936Z,47.30
2022-12-31T12:56:19.881Z,43.49
2022-12-31T12:57:19.863Z,46.67
2022-12-31T12:58:19.834Z,48.91
2022-12-31T12:59:19.821Z,42.09
2022-12-31T13:00:19.783Z,38.06
2022-12-31T13:01:19.867Z,40.15
2022-12-31T13:02:19.849Z,38.07
2022-12-31T13:03:19.697Z,45.25
2022-12-31T13:04:35.740Z,40.32
2022-12-31T13:05:25.988Z,40.61
2022-12-31T13:06:19.615Z,41.06
2022-12-31T13:07:19.586Z,41.34
2022-12-31T13:08:19.552Z,37.90
2022-12-31T13:09:19.513Z,41.59
2022-12-31T13:10:19.477Z,39.89
2022-12-31T13:11:19.475Z,43.76
2022-12-31T13:12:19.417Z,32.13
2022-12-31T13:13:24.224Z,34.98
2022-12-31T13:14:19.365Z,35.73
2022-12-31T13:15:19.340Z,37.73
2022-12-31T13:16:19.349Z,40.82
2022-12-31T13:17:19.294Z,40.47
2022-12-31T13:18:19.250Z,34.54
2022-12-31T13:20:19.198Z,49.06
2022-12-31T13:21:19.172Z,29.83
2022-12-31T13:22:19.170Z,33.24
2022-12-31T13:23:19.117Z,41.11
2022-12-31T13:24:19.070Z,42.34
2022-12-31T13:25:19.042Z,50.47
2022-12-31T13:26:19.018Z,47.04
2022-12-31T13:27:19.021Z,36.72
2022-12-31T13:28:18.981Z,32.84
2022-12-31T13:29:18.952Z,38.19
2022-12-31T13:30:18.934Z,37.60
2022-12-31T13:31:19.027Z,39.83
2022-12-31T13:32:18.869Z,44.45
2022-12-31T13:33:18.854Z,42.76
2022-12-31T13:34:18.816Z,41.37
2022-12-31T13:35:18.785Z,40.69
2022-12-31T13:36:18.765Z,37.11
2022-12-31T13:37:18.738Z,34.43
2022-12-31T13:38:18.706Z,35.59
2022-12-31T13:39:18.671Z,47.08
2022-12-31T13:40:18.646Z,40.82
2022-12-31T13:41:18.626Z,41.75
2022-12-31T13:42:18.600Z,39.86
2022-12-31T13:43:18.599Z,38.61
2022-12-31T13:44:18.556Z,42.20
2022-12-31T13:45:18.525Z,39.40
2022-12-31T13:46:18.601Z,39.95
2022-12-31T13:47:18.470Z,39.00
2022-12-31T13:48:18.430Z,46.35
2022-12-31T13:49:18.404Z,39.89
2022-12-31T13:50:18.371Z,40.99
2022-12-31T13:51:18.348Z,37.56
2022-12-31T13:52:18.326Z,38.53
2022-12-31T13:53:18.389Z,30.27
2022-12-31T13:54:18.266Z,34.52
2022-12-31T13:55:18.240Z,38.40
2022-12-31T13:56:18.212Z,42.03
2022-12-31T13:57:18.184Z,36.45
2022-12-31T13:58:18.162Z,35.74
2022-12-31T13:59:18.186Z,40.64
2022-12-31T14:00:18.104Z,34.15
2022-12-31T14:01:18.222Z,32.45
2022-12-31T14:02:18.348Z,37.07
2022-12-31T14:03:18.067Z,44.76
2022-12-31T14:04:18.009Z,42.67
2022-12-31T14:05:17.986Z,38.69
2022-12-31T14:06:17.945Z,41.38
2022-12-31T14:07:17.940Z,43.69
2022-12-31T14:08:17.901Z,38.01
2022-12-31T14:09:17.873Z,45.91
2022-12-31T14:10:17.841Z,42.81
2022-12-31T14:11:17.818Z,36.44
2022-12-31T14:12:17.814Z,39.79
2022-12-31T14:13:17.753Z,36.37
2022-12-31T14:14:17.729Z,40.54
2022-12-31T14:15:17.718Z,45.55
2022-12-31T14:16:17.704Z,48.33
2022-12-31T14:17:17.649Z,39.09
2022-12-31T14:18:17.712Z,33.55
2022-12-31T14:19:17.602Z,34.82
2022-12-31T14:20:17.580Z,42.90
2022-12-31T14:21:17.564Z,47.43
2022-12-31T14:22:17.525Z,37.38
2022-12-31T14:23:17.499Z,32.08
2022-12-31T14:24:17.517Z,32.40
2022-12-31T14:25:17.449Z,39.93
2022-12-31T14:26:17.421Z,34.79
2022-12-31T14:27:17.389Z,39.85
2022-12-31T14:28:17.358Z,40.74
2022-12-31T14:29:17.349Z,32.84
2022-12-31T14:30:17.288Z,41.59
2022-12-31T14:31:17.391Z,43.28
2022-12-31T14:32:17.244Z,42.73
2022-12-31T14:33:17.203Z,37.07
2022-12-31T14:34:17.169Z,38.62
2022-12-31T14:35:17.144Z,33.86
2022-12-31T14:36:17.115Z,41.79
2022-12-31T14:37:17.076Z,31.97
2022-12-31T14:38:17.044Z,35.34
2022-12-31T14:39:17.016Z,40.74
2022-12-31T14:40:17.002Z,40.45
2022-12-31T14:41:16.963Z,35.52
2022-12-31T14:42:16.949Z,35.99
2022-12-31T14:43:16.897Z,28.74
2022-12-31T14:44:16.859Z,41.65
2022-12-31T14:45:16.832Z,36.83
2022-12-31T14:46:16.880Z,31.45
2022-12-31T14:47:16.798Z,38.64
2022-12-31T14:48:21.529Z,39.14
2022-12-31T14:49:16.715Z,39.63
2022-12-31T14:50:16.700Z,39.37
2022-12-31T14:51:16.653Z,41.20
2022-12-31T14:52:16.618Z,39.64
2022-12-31T14:53:16.593Z,38.66
2022-12-31T14:54:16.560Z,37.10
2022-12-31T14:55:16.535Z,37.83
2022-12-31T14:56:16.528Z,44.19
2022-12-31T14:57:16.536Z,45.56
2022-12-31T14:58:27.744Z,41.82
2022-12-31T14:59:16.434Z,42.13
2022-12-31T15:00:16.426Z,42.47
2022-12-31T15:01:16.482Z,33.54
2022-12-31T15:02:16.510Z,36.23
2022-12-31T15:03:16.429Z,40.13
2022-12-31T15:04:16.303Z,47.84
2022-12-31T15:05:16.263Z,39.61
2022-12-31T15:06:16.239Z,46.87
2022-12-31T15:07:16.194Z,47.88
2022-12-31T15:08:16.170Z,37.73
2022-12-31T15:09:16.144Z,33.42
2022-12-31T15:10:16.101Z,38.73
2022-12-31T15:11:16.080Z,39.53
2022-12-31T15:12:16.051Z,40.70
2022-12-31T15:13:16.022Z,35.53
2022-12-31T15:14:16.008Z,38.85
2022-12-31T15:15:15.976Z,37.90
2022-12-31T15:16:15.938Z,36.04
2022-12-31T15:17:15.943Z,44.33
2022-12-31T15:18:15.883Z,35.88
2022-12-31T15:19:15.904Z,36.26
2022-12-31T15:20:17.580Z,40.69
2022-12-31T15:21:15.784Z,40.75
2022-12-31T15:22:15.756Z,41.46
2022-12-31T15:23:15.729Z,42.56
2022-12-31T15:24:15.702Z,42.69
2022-12-31T15:25:15.679Z,38.01
2022-12-31T15:26:15.651Z,35.95
2022-12-31T15:27:15.610Z,31.49
2022-12-31T15:28:15.587Z,40.91
2022-12-31T15:29:15.546Z,39.11
2022-12-31T15:30:15.525Z,36.46
2022-12-31T15:31:18.568Z,45.99
2022-12-31T15:32:15.474Z,46.20
2022-12-31T15:33:15.436Z,42.10
2022-12-31T15:34:15.408Z,37.16
2022-12-31T15:35:15.394Z,39.88
2022-12-31T15:36:15.336Z,38.12
2022-12-31T15:37:15.305Z,32.57
2022-12-31T15:38:15.280Z,36.67
2022-12-31T15:39:15.235Z,35.93
2022-12-31T15:40:15.207Z,33.58
2022-12-31T15:41:15.193Z,36.48
2022-12-31T15:43:15.127Z,38.46
2022-12-31T15:44:15.092Z,39.00
2022-12-31T15:45:15.063Z,39.12
2022-12-31T15:46:15.155Z,39.92
2022-12-31T15:47:15.014Z,35.84
2022-12-31T15:48:14.998Z,36.51
2022-12-31T15:49:16.097Z,31.96
2022-12-31T15:50:14.952Z,39.56
2022-12-31T15:51:14.930Z,37.27
2022-12-31T15:52:14.880Z,40.35
2022-12-31T15:53:14.877Z,42.43
2022-12-31T15:54:14.831Z,40.81
2022-12-31T15:55:14.803Z,40.50
2022-12-31T15:56:14.778Z,36.49
2022-12-31T15:57:14.749Z,31.82
2022-12-31T15:58:14.735Z,34.65
2022-12-31T15:59:14.699Z,32.52
2022-12-31T16:00:14.658Z,34.73
2022-12-31T16:01:14.882Z,38.34
2022-12-31T16:02:14.801Z,37.43
2022-12-31T16:03:14.632Z,33.61
2022-12-31T16:04:14.561Z,31.71
2022-12-31T16:05:14.523Z,35.59
2022-12-31T16:06:14.483Z,36.22
2022-12-31T16:07:14.476Z,38.84
2022-12-31T16:08:14.422Z,36.73
2022-12-31T16:09:14.406Z,30.00
2022-12-31T16:10:14.389Z,33.41
2022-12-31T16:11:14.339Z,38.40
2022-12-31T16:12:14.311Z,32.92
2022-12-31T16:13:14.284Z,36.18
2022-12-31T16:14:14.255Z,33.37
2022-12-31T16:15:14.235Z,40.09
2022-12-31T16:16:14.253Z,29.29
2022-12-31T16:17:14.183Z,32.14
2022-12-31T16:18:18.956Z,35.82
2022-12-31T16:19:14.132Z,36.24
2022-12-31T16:20:14.103Z,37.77
2022-12-31T16:21:14.079Z,40.47
2022-12-31T16:22:14.057Z,37.04
2022-12-31T16:23:14.052Z,37.59
2022-12-31T16:24:14.007Z,29.17
2022-12-31T16:25:31.172Z,32.04
2022-12-31T16:26:13.958Z,32.18
2022-12-31T16:27:13.916Z,27.82
2022-12-31T16:28:13.888Z,30.78
2022-12-31T16:29:13.863Z,36.38
2022-12-31T16:30:13.837Z,39.70
2022-12-31T16:31:13.914Z,38.09
2022-12-31T16:32:13.793Z,35.79
2022-12-31T16:33:13.760Z,38.66
2022-12-31T16:34:13.739Z,27.03
2022-12-31T16:35:21.574Z,35.40
2022-12-31T16:36:13.680Z,35.69
2022-12-31T16:37:13.654Z,35.88
2022-12-31T16:38:13.637Z,40.12
2022-12-31T16:39:13.617Z,36.73
2022-12-31T16:40:13.562Z,36.32
2022-12-31T16:41:13.533Z,28.98
2022-12-31T16:42:13.511Z,34.59
2022-12-31T16:43:13.484Z,37.68
2022-12-31T16:44:13.445Z,30.78
2022-12-31T16:45:13.418Z,33.37
2022-12-31T16:46:13.505Z,38.10
2022-12-31T16:47:13.372Z,31.44
2022-12-31T16:48:17.020Z,32.20
2022-12-31T16:49:13.320Z,32.71
2022-12-31T16:50:13.284Z,33.37
2022-12-31T16:51:13.257Z,35.95
2022-12-31T16:52:13.232Z,36.55
2022-12-31T16:53:13.199Z,36.49
2022-12-31T16:54:18.569Z,32.22
2022-12-31T16:55:13.167Z,32.44
2022-12-31T16:56:13.109Z,32.28
2022-12-31T16:57:13.084Z,25.53
2022-12-31T16:58:13.054Z,33.42
2022-12-31T16:59:13.033Z,38.57
2022-12-31T17:00:13.006Z,35.69
2022-12-31T17:01:13.099Z,38.04
2022-12-31T17:02:13.082Z,25.00
2022-12-31T17:03:12.960Z,24.41
2022-12-31T17:04:12.882Z,40.58
2022-12-31T17:05:12.856Z,41.13
2022-12-31T17:06:12.827Z,38.04
2022-12-31T17:07:12.799Z,38.67
2022-12-31T17:08:12.767Z,42.42
2022-12-31T17:09:12.752Z,47.92
2022-12-31T17:10:12.718Z,44.88
2022-12-31T17:11:12.704Z,42.35
2022-12-31T17:12:12.651Z,50.92
2022-12-31T17:13:29.824Z,43.36
2022-12-31T17:14:12.597Z,43.66
2022-12-31T17:15:12.571Z,45.85
2022-12-31T17:16:12.584Z,45.70
2022-12-31T17:17:12.524Z,45.23
2022-12-31T17:18:12.496Z,42.43
2022-12-31T17:19:12.792Z,48.94
2022-12-31T17:20:12.453Z,42.38
2022-12-31T17:21:12.442Z,48.62
2022-12-31T17:22:12.392Z,49.19
2022-12-31T17:23:12.366Z,45.14
2022-12-31T17:24:12.343Z,49.39
2022-12-31T17:25:12.312Z,45.10
2022-12-31T17:26:12.296Z,37.72
2022-12-31T17:27:12.287Z,42.89
2022-12-31T17:28:12.240Z,47.12
2022-12-31T17:29:12.201Z,48.05
2022-12-31T17:30:12.174Z,45.24
2022-12-31T17:31:12.224Z,40.30
2022-12-31T17:32:12.125Z,40.09
2022-12-31T17:33:12.095Z,44.48
2022-12-31T17:34:12.112Z,40.36
2022-12-31T17:35:12.040Z,39.87
2022-12-31T17:36:12.016Z,39.92
2022-12-31T17:37:17.659Z,42.71
2022-12-31T17:38:11.974Z,43.31
2022-12-31T17:39:12.031Z,43.42
2022-12-31T17:40:49.295Z,42.30
2022-12-31T17:41:11.886Z,43.32
2022-12-31T17:42:11.874Z,43.48
2022-12-31T17:43:11.878Z,44.43
2022-12-31T17:44:11.842Z,45.14
2022-12-31T17:45:11.791Z,53.53
2022-12-31T17:46:11.849Z,46.03
2022-12-31T17:47:11.783Z,44.74
2022-12-31T17:48:11.708Z,32.42
2022-12-31T17:49:11.838Z,35.60
2022-12-31T17:50:11.660Z,41.05
2022-12-31T17:51:11.629Z,43.08
2022-12-31T17:52:11.607Z,38.90
2022-12-31T17:53:11.599Z,46.19
2022-12-31T17:54:11.635Z,41.80
2022-12-31T17:55:11.526Z,39.99
2022-12-31T17:56:11.507Z,38.27
2022-12-31T17:57:11.480Z,32.95
2022-12-31T17:58:11.462Z,37.97
2022-12-31T17:59:11.454Z,44.32
2022-12-31T18:00:11.402Z,38.15
2022-12-31T18:01:11.477Z,40.86
2022-12-31T18:02:11.438Z,48.39
2022-12-31T18:03:11.391Z,47.70
2022-12-31T18:04:11.287Z,51.23
2022-12-31T18:05:11.264Z,42.81
2022-12-31T18:06:16.257Z,46.38
2022-12-31T18:07:11.212Z,46.51
2022-12-31T18:08:11.185Z,47.17
2022-12-31T18:09:11.161Z,47.88
2022-12-31T18:10:11.129Z,42.45
2022-12-31T18:11:11.108Z,29.50
2022-12-31T18:12:11.086Z,37.24
2022-12-31T18:13:11.059Z,44.60
2022-12-31T18:14:11.032Z,49.09
2022-12-31T18:15:11.032Z,43.96
2022-12-31T18:16:11.020Z,42.13
2022-12-31T18:17:11.627Z,33.89
2022-12-31T18:18:10.915Z,37.15
2022-12-31T18:19:23.716Z,34.28
2022-12-31T18:20:10.857Z,34.65
2022-12-31T18:21:10.828Z,35.05
2022-12-31T18:22:10.814Z,39.07
2022-12-31T18:23:10.781Z,44.68
2022-12-31T18:24:10.758Z,49.42
2022-12-31T18:25:10.730Z,40.47
2022-12-31T18:26:10.705Z,35.72
2022-12-31T18:27:10.693Z,30.65
2022-12-31T18:28:10.658Z,40.88
2022-12-31T18:29:10.643Z,44.77
2022-12-31T18:30:10.616Z,48.95
2022-12-31T18:31:10.672Z,46.86
2022-12-31T18:32:10.562Z,46.27
2022-12-31T18:33:10.547Z,46.68
2022-12-31T18:34:10.517Z,39.82
2022-12-31T18:35:21.195Z,43.59
2022-12-31T18:36:10.742Z,43.76
2022-12-31T18:37:10.480Z,44.35
2022-12-31T18:38:10.420Z,44.78
2022-12-31T18:39:10.394Z,47.15
2022-12-31T18:40:10.374Z,45.29
2022-12-31T18:41:10.339Z,43.25
2022-12-31T18:42:10.354Z,41.77
2022-12-31T18:43:10.306Z,39.36
2022-12-31T18:44:10.296Z,45.04
2022-12-31T18:45:10.273Z,40.85
2022-12-31T18:46:10.278Z,47.82
2022-12-31T18:47:10.250Z,44.07
2022-12-31T18:48:10.196Z,46.23
2022-12-31T18:49:10.193Z,48.03
2022-12-31T18:50:10.173Z,46.59
2022-12-31T18:51:10.133Z,42.77
2022-12-31T18:52:10.111Z,40.91
2022-12-31T18:53:10.081Z,41.88
2022-12-31T18:54:10.070Z,45.02
2022-12-31T18:55:10.034Z,43.76
2022-12-31T18:56:10.009Z,37.78
2022-12-31T18:57:09.993Z,45.07
2022-12-31T18:58:10.030Z,43.21
2022-12-31T18:59:09.940Z,47.46
2022-12-31T19:00:09.936Z,46.65
2022-12-31T19:01:09.996Z,44.44
2022-12-31T19:02:09.949Z,41.03
2022-12-31T19:03:09.913Z,42.97
2022-12-31T19:04:09.814Z,50.61
2022-12-31T19:05:09.784Z,43.75
2022-12-31T19:06:09.780Z,41.02
2022-12-31T19:07:09.755Z,46.60
2022-12-31T19:08:09.729Z,40.56
2022-12-31T19:09:30.850Z,39.23
2022-12-31T19:10:09.659Z,39.62
2022-12-31T19:11:09.642Z,40.11
2022-12-31T19:12:09.612Z,39.91
2022-12-31T19:13:09.615Z,39.71
2022-12-31T19:14:09.556Z,43.34
2022-12-31T19:15:09.526Z,48.95
2022-12-31T19:16:09.575Z,55.89
2022-12-31T19:18:09.444Z,45.36
2022-12-31T19:19:09.913Z,44.10
2022-12-31T19:20:09.397Z,39.70
2022-12-31T19:21:09.373Z,46.21
2022-12-31T19:22:09.356Z,40.81
2022-12-31T19:23:09.325Z,49.41
2022-12-31T19:24:09.305Z,49.40
2022-12-31T19:25:09.276Z,40.80
2022-12-31T19:26:09.251Z,50.85
2022-12-31T19:27:09.225Z,47.69
2022-12-31T19:28:09.206Z,40.75
2022-12-31T19:29:09.179Z,37.56
2022-12-31T19:30:09.147Z,45.46
2022-12-31T19:31:09.129Z,40.13
2022-12-31T19:32:09.139Z,41.74
2022-12-31T19:33:09.085Z,40.08
2022-12-31T19:34:09.040Z,40.57
2022-12-31T19:35:09.052Z,47.58
2022-12-31T19:36:08.991Z,41.09
2022-12-31T19:37:08.959Z,40.70
2022-12-31T19:38:08.934Z,45.65
2022-12-31T19:39:08.918Z,44.65
2022-12-31T19:40:08.892Z,43.22
2022-12-31T19:41:08.870Z,43.12
2022-12-31T19:42:08.850Z,42.59
2022-12-31T19:43:08.823Z,28.51
2022-12-31T19:44:08.807Z,38.26
2022-12-31T19:45:08.781Z,43.87
2022-12-31T19:46:08.800Z,37.48
2022-12-31T19:47:08.749Z,28.15
2022-12-31T19:48:08.710Z,33.38
2022-12-31T19:49:08.694Z,37.91
2022-12-31T19:50:08.691Z,42.15
2022-12-31T19:51:08.684Z,37.23
2022-12-31T19:52:08.611Z,36.00
2022-12-31T19:53:08.595Z,38.36
2022-12-31T19:54:08.602Z,34.48
2022-12-31T19:55:08.557Z,45.83
2022-12-31T19:56:08.535Z,38.46
2022-12-31T19:57:08.517Z,34.50
2022-12-31T19:58:08.497Z,49.54
2022-12-31T19:59:08.464Z,39.40
2022-12-31T20:00:08.451Z,25.58
2022-12-31T20:01:08.539Z,30.98
2022-12-31T20:02:08.594Z,35.86
2022-12-31T20:03:08.511Z,37.72
2022-12-31T20:04:08.386Z,41.23
2022-12-31T20:05:08.353Z,43.28
2022-12-31T20:06:08.344Z,28.59
2022-12-31T20:07:08.339Z,35.66
2022-12-31T20:08:08.294Z,38.65
2022-12-31T20:09:08.275Z,39.99
2022-12-31T20:10:08.259Z,34.00
2022-12-31T20:11:08.230Z,41.68
2022-12-31T20:12:08.223Z,43.66
2022-12-31T20:13:08.191Z,37.46
2022-12-31T20:14:08.167Z,41.71
2022-12-31T20:15:08.138Z,43.97
2022-12-31T20:16:08.125Z,42.39
2022-12-31T20:17:08.163Z,43.97
2022-12-31T20:18:08.078Z,44.74
2022-12-31T20:19:08.057Z,40.88
2022-12-31T20:20:08.055Z,38.39
2022-12-31T20:21:08.025Z,33.40
2022-12-31T20:22:07.982Z,38.58
2022-12-31T20:23:07.994Z,38.66
2022-12-31T20:24:07.938Z,42.36
2022-12-31T20:25:07.912Z,47.19
2022-12-31T20:26:07.894Z,39.30
2022-12-31T20:27:10.999Z,28.80
2022-12-31T20:28:07.843Z,29.25
2022-12-31T20:29:07.808Z,31.04
2022-12-31T20:30:07.784Z,33.66
2022-12-31T20:31:07.903Z,39.18
2022-12-31T20:32:07.738Z,38.63
2022-12-31T20:33:07.717Z,43.37
2022-12-31T20:34:07.698Z,42.55
2022-12-31T20:35:07.670Z,35.57
2022-12-31T20:36:07.646Z,48.54
2022-12-31T20:37:07.640Z,37.58
2022-12-31T20:38:07.592Z,35.73
2022-12-31T20:39:07.603Z,45.98
2022-12-31T20:40:07.552Z,31.20
2022-12-31T20:41:07.531Z,37.62
2022-12-31T20:42:07.523Z,39.15
2022-12-31T20:43:07.484Z,50.78
2022-12-31T20:44:07.468Z,43.69
2022-12-31T20:45:07.460Z,31.36
2022-12-31T20:46:12.612Z,33.42
2022-12-31T20:47:07.419Z,33.94
2022-12-31T20:48:07.401Z,35.27
2022-12-31T20:49:07.389Z,35.62
2022-12-31T20:50:12.156Z,39.09
2022-12-31T20:51:07.340Z,33.83
2022-12-31T20:52:07.322Z,35.11
2022-12-31T20:53:07.315Z,37.32
2022-12-31T20:54:07.314Z,38.88
2022-12-31T20:55:07.299Z,39.81
2022-12-31T20:56:07.250Z,37.34
2022-12-31T20:57:07.232Z,30.73
2022-12-31T20:58:07.202Z,34.24
2022-12-31T20:59:07.183Z,41.32
2022-12-31T21:00:07.167Z,35.55
2022-12-31T21:01:07.390Z,39.22
2022-12-31T21:02:26.534Z,39.03
2022-12-31T21:03:18.641Z,39.23
2022-12-31T21:04:07.474Z,39.50
2022-12-31T21:05:07.136Z,39.48
2022-12-31T21:06:07.073Z,39.77
2022-12-31T21:07:06.980Z,40.00
2022-12-31T21:08:06.954Z,30.00
2022-12-31T21:09:06.944Z,37.25
2022-12-31T21:10:06.916Z,42.16
2022-12-31T21:11:06.916Z,36.12
2022-12-31T21:12:06.863Z,40.90
2022-12-31T21:13:06.830Z,36.93
2022-12-31T21:14:06.803Z,44.17
2022-12-31T21:15:06.777Z,37.41
2022-12-31T21:16:06.770Z,40.07
2022-12-31T21:17:06.730Z,42.76
2022-12-31T21:18:06.707Z,33.90
2022-12-31T21:19:06.681Z,38.26
2022-12-31T21:20:06.650Z,35.38
2022-12-31T21:21:06.625Z,29.92
2022-12-31T21:22:06.610Z,40.66
2022-12-31T21:23:06.590Z,43.23
2022-12-31T21:24:06.572Z,33.42
2022-12-31T21:25:06.541Z,28.25
2022-12-31T21:26:06.517Z,26.55
2022-12-31T21:27:06.508Z,32.25
2022-12-31T21:28:06.461Z,36.28
2022-12-31T21:29:06.451Z,36.82
2022-12-31T21:30:21.828Z,29.47
2022-12-31T21:31:06.434Z,30.18
2022-12-31T21:32:06.382Z,32.55
2022-12-31T21:33:06.363Z,35.67
2022-12-31T21:34:06.342Z,41.58
2022-12-31T21:35:41.209Z,45.13
2022-12-31T21:36:06.305Z,30.47
2022-12-31T21:37:06.260Z,32.83
2022-12-31T21:38:06.238Z,33.67
2022-12-31T21:39:06.205Z,38.35
2022-12-31T21:40:06.189Z,42.30
2022-12-31T21:41:06.156Z,40.59
2022-12-31T21:42:06.131Z,37.90
2022-12-31T21:43:06.141Z,37.67
2022-12-31T21:44:06.080Z,41.54
2022-12-31T21:45:06.064Z,41.68
2022-12-31T21:46:06.114Z,50.74
2022-12-31T21:47:34.694Z,50.87
2022-12-31T21:48:05.989Z,51.29
2022-12-31T21:49:05.960Z,46.76
2022-12-31T21:50:05.929Z,50.95
2022-12-31T21:51:05.910Z,45.24
2022-12-31T21:52:05.875Z,45.54
2022-12-31T21:53:05.856Z,35.84
2022-12-31T21:54:05.821Z,36.38
2022-12-31T21:55:05.802Z,45.27
2022-12-31T21:56:05.773Z,49.87
2022-12-31T21:57:05.740Z,41.22
2022-12-31T21:59:05.806Z,44.93
2022-12-31T22:00:39.457Z,45.62
2022-12-31T22:01:05.674Z,44.80
2022-12-31T22:02:05.759Z,45.05
2022-12-31T22:03:05.675Z,47.62
2022-12-31T22:04:05.557Z,40.10
2022-12-31T22:05:14.854Z,43.52
2022-12-31T22:06:05.495Z,44.83
2022-12-31T22:07:05.468Z,45.58
2022-12-31T22:08:05.444Z,46.25
2022-12-31T22:09:05.440Z,39.82
2022-12-31T22:10:05.398Z,49.67
2022-12-31T22:11:05.368Z,39.35
2022-12-31T22:12:05.338Z,42.24
2022-12-31T22:13:05.345Z,40.27
2022-12-31T22:14:05.291Z,47.29
2022-12-31T22:15:14.875Z,38.40
2022-12-31T22:16:06.182Z,38.87
2022-12-31T22:17:05.215Z,39.08
2022-12-31T22:18:05.180Z,39.57
2022-12-31T22:19:05.152Z,42.35
2022-12-31T22:20:30.003Z,42.98
2022-12-31T22:21:05.091Z,38.67
2022-12-31T22:22:05.064Z,39.57
2022-12-31T22:23:05.030Z,40.32
2022-12-31T22:24:05.006Z,42.40
2022-12-31T22:25:04.975Z,47.35
2022-12-31T22:26:04.940Z,47.86
2022-12-31T22:27:28.519Z,50.35
2022-12-31T22:28:36.634Z,50.71
2022-12-31T22:29:04.861Z,50.97
2022-12-31T22:30:04.842Z,50.96